CheckWX is a tool to help pilots better visualize weather data.  It is not intended as a substitute for an official pre-flight weather briefing.

14:40:56 UTC

KBAZ METAR
New Braunfels Regional Airport
New Braunfels, Texas, USA
Current

50 mins ago

KBAZ 261351Z 03016G22KT 10SM CLR 21/13 A3014 RMK AO2 SLP199 T02060133
Observed
Apr-26 @ 13:51 UTC
Wind
  • 030° at 16 KTS
  • Gusting to 22 KTS
Visibility
10 SM
Flight Rules
VFR
Cloud Levels
  • Clear skies
Temperature
21°C / 70°F
Dewpoint
13°C / 55°F
Humidity
60%
Altimeter
30.14" Hg
Pressure
1020.62 hPa
Previous

2 hours ago

KBAZ 261251Z 02010KT 10SM CLR 18/13 A3012 RMK AO2 SLP194 T01830133
Observed
Apr-26 @ 12:51 UTC
Wind
  • 020° at 10 KTS
Visibility
10 SM
Flight Rules
VFR
Cloud Levels
  • Clear skies
Temperature
18°C / 64°F
Dewpoint
13°C / 55°F
Humidity
73%
Altimeter
30.12" Hg
Pressure
1020.02 hPa
Previous

3 hours ago

KBAZ 261151Z 01009KT 10SM CLR 17/13 A3009 RMK AO2 SLP183 T01720128 10183 20144 53022
Observed
Apr-26 @ 11:51 UTC
Wind
  • 010° at 9 KTS
Visibility
10 SM
Flight Rules
VFR
Cloud Levels
  • Clear skies
Temperature
17°C / 63°F
Dewpoint
13°C / 55°F
Humidity
77%
Altimeter
30.09" Hg
Pressure
1018.92 hPa